sensor_id;sensor_type;location;lat;lon;timestamp;pressure;altitude;pressure_sealevel;temperature;humidity
6090;BME280;3073;42.660;23.316;2023-03-19T00:02:05;95050.31;;;2.41;100.00
6090;BME280;3073;42.660;23.316;2023-03-19T00:04:34;95052.75;;;2.35;100.00
6090;BME280;3073;42.660;23.316;2023-03-19T00:07:01;95049.19;;;2.29;100.00
6090;BME280;3073;42.660;23.316;2023-03-19T00:09:28;95049.63;;;2.33;100.00
6090;BME280;3073;42.660;23.316;2023-03-19T00:11:56;95051.34;;;2.32;100.00
6090;BME280;3073;42.660;23.316;2023-03-19T00:14:23;95053.53;;;2.35;100.00
6090;BME280;3073;42.660;23.316;2023-03-19T00:16:52;95039.66;;;2.39;100.00
6090;BME280;3073;42.660;23.316;2023-03-19T00:19:19;95045.47;;;2.40;100.00
6090;BME280;3073;42.660;23.316;2023-03-19T00:21:46;95045.56;;;2.46;100.00
6090;BME280;3073;42.660;23.316;2023-03-19T00:24:13;95042.25;;;2.46;100.00
6090;BME280;3073;42.660;23.316;2023-03-19T00:26:42;95036.78;;;2.42;100.00
6090;BME280;3073;42.660;23.316;2023-03-19T00:29:12;95031.38;;;2.31;100.00
6090;BME280;3073;42.660;23.316;2023-03-19T00:31:39;95034.50;;;2.33;100.00
6090;BME280;3073;42.660;23.316;2023-03-19T00:34:06;95028.41;;;2.27;100.00
6090;BME280;3073;42.660;23.316;2023-03-19T00:36:34;95031.72;;;2.13;100.00
6090;BME280;3073;42.660;23.316;2023-03-19T00:39:01;95018.25;;;2.06;100.00
6090;BME280;3073;42.660;23.316;2023-03-19T00:41:28;95018.84;;;1.93;100.00
6090;BME280;3073;42.660;23.316;2023-03-19T00:43:56;95021.88;;;1.66;100.00
6090;BME280;3073;42.660;23.316;2023-03-19T00:46:25;95020.28;;;1.65;100.00
6090;BME280;3073;42.660;23.316;2023-03-19T00:48:52;95024.16;;;1.53;100.00
6090;BME280;3073;42.660;23.316;2023-03-19T00:51:21;95023.06;;;1.47;100.00
6090;BME280;3073;42.660;23.316;2023-03-19T00:53:48;95013.00;;;1.47;100.00
6090;BME280;3073;42.660;23.316;2023-03-19T00:56:15;95018.56;;;1.43;100.00
6090;BME280;3073;42.660;23.316;2023-03-19T00:58:43;95012.56;;;1.44;100.00
6090;BME280;3073;42.660;23.316;2023-03-19T01:01:12;95009.22;;;1.51;100.00
6090;BME280;3073;42.660;23.316;2023-03-19T01:03:41;95006.81;;;1.58;100.00
6090;BME280;3073;42.660;23.316;2023-03-19T01:06:09;95006.66;;;1.60;100.00
6090;BME280;3073;42.660;23.316;2023-03-19T01:08:36;95006.00;;;1.66;100.00
6090;BME280;3073;42.660;23.316;2023-03-19T01:11:05;95002.19;;;1.70;100.00
6090;BME280;3073;42.660;23.316;2023-03-19T01:13:32;94996.75;;;1.81;100.00
6090;BME280;3073;42.660;23.316;2023-03-19T01:15:59;95003.09;;;1.91;100.00
6090;BME280;3073;42.660;23.316;2023-03-19T01:18:25;94994.88;;;1.97;100.00
6090;BME280;3073;42.660;23.316;2023-03-19T01:20:54;95001.63;;;1.97;100.00
6090;BME280;3073;42.660;23.316;2023-03-19T01:23:21;94996.19;;;1.93;100.00
6090;BME280;3073;42.660;23.316;2023-03-19T01:25:47;94995.31;;;1.86;100.00
6090;BME280;3073;42.660;23.316;2023-03-19T01:28:15;94990.63;;;1.83;100.00
6090;BME280;3073;42.660;23.316;2023-03-19T01:30:41;94995.69;;;1.75;100.00
6090;BME280;3073;42.660;23.316;2023-03-19T01:33:08;94992.84;;;1.78;100.00
6090;BME280;3073;42.660;23.316;2023-03-19T01:35:35;94987.31;;;1.83;100.00
6090;BME280;3073;42.660;23.316;2023-03-19T01:38:04;94987.31;;;1.83;100.00
6090;BME280;3073;42.660;23.316;2023-03-19T01:40:31;94989.19;;;1.81;100.00
6090;BME280;3073;42.660;23.316;2023-03-19T01:43:12;94995.66;;;1.83;100.00
6090;BME280;3073;42.660;23.316;2023-03-19T01:45:41;94990.50;;;1.77;100.00
6090;BME280;3073;42.660;23.316;2023-03-19T01:48:16;94997.72;;;1.80;100.00
6090;BME280;3073;42.660;23.316;2023-03-19T01:50:45;94997.38;;;1.83;100.00
6090;BME280;3073;42.660;23.316;2023-03-19T01:53:17;94997.53;;;1.81;100.00
6090;BME280;3073;42.660;23.316;2023-03-19T01:55:46;95004.97;;;1.75;100.00
6090;BME280;3073;42.660;23.316;2023-03-19T01:58:13;95004.41;;;1.65;100.00
6090;BME280;3073;42.660;23.316;2023-03-19T02:00:41;95005.31;;;1.49;100.00
6090;BME280;3073;42.660;23.316;2023-03-19T02:03:07;94998.94;;;1.38;100.00
6090;BME280;3073;42.660;23.316;2023-03-19T02:05:36;95011.66;;;1.37;100.00
6090;BME280;3073;42.660;23.316;2023-03-19T02:08:06;95001.56;;;1.22;100.00
6090;BME280;3073;42.660;23.316;2023-03-19T02:10:36;94999.47;;;1.03;100.00
6090;BME280;3073;42.660;23.316;2023-03-19T02:13:03;95001.59;;;1.14;100.00
6090;BME280;3073;42.660;23.316;2023-03-19T02:15:30;95002.50;;;1.21;100.00
6090;BME280;3073;42.660;23.316;2023-03-19T02:17:57;94997.13;;;1.24;100.00
6090;BME280;3073;42.660;23.316;2023-03-19T02:20:26;94993.34;;;1.28;100.00
6090;BME280;3073;42.660;23.316;2023-03-19T02:23:03;94991.91;;;1.34;100.00
6090;BME280;3073;42.660;23.316;2023-03-19T02:25:40;94997.72;;;1.34;100.00
6090;BME280;3073;42.660;23.316;2023-03-19T02:28:12;94989.03;;;1.37;100.00
6090;BME280;3073;42.660;23.316;2023-03-19T02:30:41;94994.41;;;1.34;100.00
6090;BME280;3073;42.660;23.316;2023-03-19T02:33:10;94992.19;;;1.39;100.00
6090;BME280;3073;42.660;23.316;2023-03-19T02:35:37;94998.94;;;1.38;100.00
6090;BME280;3073;42.660;23.316;2023-03-19T02:38:05;94991.25;;;1.40;100.00
6090;BME280;3073;42.660;23.316;2023-03-19T02:40:35;95002.69;;;1.42;100.00
6090;BME280;3073;42.660;23.316;2023-03-19T02:43:04;95005.94;;;1.51;100.00
6090;BME280;3073;42.660;23.316;2023-03-19T02:45:32;95002.97;;;1.47;100.00
6090;BME280;3073;42.660;23.316;2023-03-19T02:47:59;95005.47;;;1.47;100.00
6090;BME280;3073;42.660;23.316;2023-03-19T02:50:26;94997.59;;;1.50;100.00
6090;BME280;3073;42.660;23.316;2023-03-19T02:52:54;95003.97;;;1.38;100.00
6090;BME280;3073;42.660;23.316;2023-03-19T02:55:20;95008.31;;;1.44;100.00
6090;BME280;3073;42.660;23.316;2023-03-19T02:57:47;95015.25;;;1.42;100.00
6090;BME280;3073;42.660;23.316;2023-03-19T03:00:15;95002.72;;;1.34;100.00
6090;BME280;3073;42.660;23.316;2023-03-19T03:02:44;95015.63;;;1.31;100.00
6090;BME280;3073;42.660;23.316;2023-03-19T03:05:11;95010.16;;;1.28;100.00
6090;BME280;3073;42.660;23.316;2023-03-19T03:07:39;95013.81;;;1.17;100.00
6090;BME280;3073;42.660;23.316;2023-03-19T03:10:08;95015.88;;;1.14;100.00
6090;BME280;3073;42.660;23.316;2023-03-19T03:12:35;95011.59;;;0.91;100.00
6090;BME280;3073;42.660;23.316;2023-03-19T03:15:03;95024.78;;;0.93;100.00
6090;BME280;3073;42.660;23.316;2023-03-19T03:17:30;95019.94;;;0.84;100.00
6090;BME280;3073;42.660;23.316;2023-03-19T03:19:59;95022.38;;;0.69;100.00
6090;BME280;3073;42.660;23.316;2023-03-19T03:22:26;95027.19;;;0.79;100.00
6090;BME280;3073;42.660;23.316;2023-03-19T03:24:53;95023.91;;;0.70;100.00
6090;BME280;3073;42.660;23.316;2023-03-19T03:27:19;95035.72;;;0.70;100.00
6090;BME280;3073;42.660;23.316;2023-03-19T03:29:47;95035.41;;;0.65;100.00
6090;BME280;3073;42.660;23.316;2023-03-19T03:32:14;95033.22;;;0.70;100.00
6090;BME280;3073;42.660;23.316;2023-03-19T03:34:41;95035.72;;;0.70;100.00
6090;BME280;3073;42.660;23.316;2023-03-19T03:37:09;95034.75;;;0.71;100.00
6090;BME280;3073;42.660;23.316;2023-03-19T03:39:36;95027.84;;;0.73;100.00
6090;BME280;3073;42.660;23.316;2023-03-19T03:42:03;95034.88;;;0.85;100.00
6090;BME280;3073;42.660;23.316;2023-03-19T03:44:30;95031.53;;;0.93;100.00
6090;BME280;3073;42.660;23.316;2023-03-19T03:46:57;95035.44;;;0.95;100.00
6090;BME280;3073;42.660;23.316;2023-03-19T03:49:24;95040.00;;;1.00;100.00
6090;BME280;3073;42.660;23.316;2023-03-19T03:51:51;95042.94;;;1.03;100.00
6090;BME280;3073;42.660;23.316;2023-03-19T03:54:19;95035.13;;;0.98;100.00
6090;BME280;3073;42.660;23.316;2023-03-19T03:56:46;95048.81;;;0.96;100.00
6090;BME280;3073;42.660;23.316;2023-03-19T03:59:16;95042.50;;;1.00;100.00
6090;BME280;3073;42.660;23.316;2023-03-19T04:01:42;95046.56;;;1.01;100.00
6090;BME280;3073;42.660;23.316;2023-03-19T04:04:09;95048.00;;;0.95;100.00
6090;BME280;3073;42.660;23.316;2023-03-19T04:06:36;95041.25;;;0.96;100.00
6090;BME280;3073;42.660;23.316;2023-03-19T04:09:03;95045.78;;;1.00;100.00
6090;BME280;3073;42.660;23.316;2023-03-19T04:11:33;95038.16;;;0.86;100.00
6090;BME280;3073;42.660;23.316;2023-03-19T04:14:20;95036.00;;;0.75;100.00
6090;BME280;3073;42.660;23.316;2023-03-19T04:16:47;95038.50;;;0.83;100.00
6090;BME280;3073;42.660;23.316;2023-03-19T04:19:14;95031.91;;;0.82;100.00
6090;BME280;3073;42.660;23.316;2023-03-19T04:21:41;95032.63;;;0.90;100.00
6090;BME280;3073;42.660;23.316;2023-03-19T04:24:09;95031.88;;;0.90;100.00
6090;BME280;3073;42.660;23.316;2023-03-19T04:26:37;95036.59;;;0.85;100.00
6090;BME280;3073;42.660;23.316;2023-03-19T04:29:04;95039.56;;;0.88;100.00
6090;BME280;3073;42.660;23.316;2023-03-19T04:31:32;95044.44;;;0.90;100.00
6090;BME280;3073;42.660;23.316;2023-03-19T04:33:59;95042.53;;;0.92;100.00
6090;BME280;3073;42.660;23.316;2023-03-19T04:36:26;95041.75;;;0.91;100.00
6090;BME280;3073;42.660;23.316;2023-03-19T04:38:53;95051.13;;;0.97;100.00
6090;BME280;3073;42.660;23.316;2023-03-19T04:41:20;95050.66;;;0.94;100.00
6090;BME280;3073;42.660;23.316;2023-03-19T04:43:48;95057.00;;;0.82;100.00
6090;BME280;3073;42.660;23.316;2023-03-19T04:46:15;95055.22;;;0.90;100.00
6090;BME280;3073;42.660;23.316;2023-03-19T04:48:42;95051.31;;;0.96;100.00
6090;BME280;3073;42.660;23.316;2023-03-19T04:51:09;95053.38;;;0.92;100.00
6090;BME280;3073;42.660;23.316;2023-03-19T04:53:37;95048.50;;;0.91;100.00
6090;BME280;3073;42.660;23.316;2023-03-19T04:56:05;95042.66;;;0.98;100.00
6090;BME280;3073;42.660;23.316;2023-03-19T04:58:32;95040.47;;;0.95;100.00
6090;BME280;3073;42.660;23.316;2023-03-19T05:01:00;95041.22;;;1.04;100.00
6090;BME280;3073;42.660;23.316;2023-03-19T05:03:28;95042.31;;;1.10;100.00
6090;BME280;3073;42.660;23.316;2023-03-19T05:05:56;95044.63;;;1.19;100.00
6090;BME280;3073;42.660;23.316;2023-03-19T05:08:22;95048.53;;;1.22;100.00
6090;BME280;3073;42.660;23.316;2023-03-19T05:10:49;95048.59;;;1.36;100.00
6090;BME280;3073;42.660;23.316;2023-03-19T05:13:17;95054.84;;;1.40;100.00
6090;BME280;3073;42.660;23.316;2023-03-19T05:15:44;95048.28;;;1.39;100.00
6090;BME280;3073;42.660;23.316;2023-03-19T05:18:13;95043.69;;;1.43;100.00
6090;BME280;3073;42.660;23.316;2023-03-19T05:20:40;95044.75;;;1.48;100.00
6090;BME280;3073;42.660;23.316;2023-03-19T05:23:08;95048.28;;;1.62;100.00
6090;BME280;3073;42.660;23.316;2023-03-19T05:25:35;95045.50;;;1.80;100.00
6090;BME280;3073;42.660;23.316;2023-03-19T05:28:03;95042.75;;;2.41;100.00
6090;BME280;3073;42.660;23.316;2023-03-19T05:30:32;95047.25;;;3.19;100.00
6090;BME280;3073;42.660;23.316;2023-03-19T05:32:59;95037.53;;;3.73;100.00
6090;BME280;3073;42.660;23.316;2023-03-19T05:35:28;95053.84;;;4.47;100.00
6090;BME280;3073;42.660;23.316;2023-03-19T05:37:55;95054.75;;;4.67;100.00
6090;BME280;3073;42.660;23.316;2023-03-19T05:40:22;95046.47;;;5.28;100.00
6090;BME280;3073;42.660;23.316;2023-03-19T05:42:49;95047.19;;;5.62;100.00
6090;BME280;3073;42.660;23.316;2023-03-19T05:45:17;95050.97;;;6.06;99.99
6090;BME280;3073;42.660;23.316;2023-03-19T05:47:45;95049.22;;;6.33;94.63
6090;BME280;3073;42.660;23.316;2023-03-19T05:50:15;95053.50;;;6.19;92.40
6090;BME280;3073;42.660;23.316;2023-03-19T05:52:43;95057.78;;;5.86;91.65
6090;BME280;3073;42.660;23.316;2023-03-19T05:55:10;95056.44;;;6.09;89.44
6090;BME280;3073;42.660;23.316;2023-03-19T05:57:37;95064.19;;;5.95;86.36
6090;BME280;3073;42.660;23.316;2023-03-19T06:00:05;95055.41;;;5.91;84.87
6090;BME280;3073;42.660;23.316;2023-03-19T06:02:33;95053.44;;;5.73;85.15
6090;BME280;3073;42.660;23.316;2023-03-19T06:05:00;95054.41;;;5.85;83.98
6090;BME280;3073;42.660;23.316;2023-03-19T06:07:27;95047.00;;;5.77;84.03
6090;BME280;3073;42.660;23.316;2023-03-19T06:09:55;95046.44;;;5.82;83.47
6090;BME280;3073;42.660;23.316;2023-03-19T06:12:22;95054.38;;;5.59;84.15
6090;BME280;3073;42.660;23.316;2023-03-19T06:14:49;95053.63;;;5.85;83.85
6090;BME280;3073;42.660;23.316;2023-03-19T06:17:16;95054.69;;;6.36;81.12
6090;BME280;3073;42.660;23.316;2023-03-19T06:19:43;95053.72;;;6.44;81.89
6090;BME280;3073;42.660;23.316;2023-03-19T06:22:11;95052.06;;;6.89;78.06
6090;BME280;3073;42.660;23.316;2023-03-19T06:24:38;95054.31;;;7.23;75.41
6090;BME280;3073;42.660;23.316;2023-03-19T06:27:08;95053.97;;;7.06;75.27
6090;BME280;3073;42.660;23.316;2023-03-19T06:29:35;95063.28;;;7.19;74.65
6090;BME280;3073;42.660;23.316;2023-03-19T06:32:02;95055.41;;;6.83;75.25
6090;BME280;3073;42.660;23.316;2023-03-19T06:34:29;95063.41;;;6.73;74.35
6090;BME280;3073;42.660;23.316;2023-03-19T06:36:56;95066.50;;;6.82;75.07
6090;BME280;3073;42.660;23.316;2023-03-19T06:39:23;95064.38;;;7.43;72.56
6090;BME280;3073;42.660;23.316;2023-03-19T06:41:50;95062.56;;;7.88;71.28
6090;BME280;3073;42.660;23.316;2023-03-19T06:44:20;95074.31;;;7.82;70.29
6090;BME280;3073;42.660;23.316;2023-03-19T06:46:47;95073.22;;;8.34;68.55
6090;BME280;3073;42.660;23.316;2023-03-19T06:49:14;95075.94;;;8.82;66.64
6090;BME280;3073;42.660;23.316;2023-03-19T06:51:41;95082.47;;;9.32;64.10
6090;BME280;3073;42.660;23.316;2023-03-19T06:54:08;95088.56;;;9.61;62.31
6090;BME280;3073;42.660;23.316;2023-03-19T06:56:35;95088.72;;;9.66;60.58
6090;BME280;3073;42.660;23.316;2023-03-19T06:59:01;95097.66;;;9.03;60.44
6090;BME280;3073;42.660;23.316;2023-03-19T07:01:31;95101.00;;;9.21;60.04
6090;BME280;3073;42.660;23.316;2023-03-19T07:03:58;95090.38;;;9.24;59.81
6090;BME280;3073;42.660;23.316;2023-03-19T07:06:24;95088.56;;;9.61;59.68
6090;BME280;3073;42.660;23.316;2023-03-19T07:08:51;95089.94;;;10.35;58.42
6090;BME280;3073;42.660;23.316;2023-03-19T07:11:19;95088.59;;;10.21;57.63
6090;BME280;3073;42.660;23.316;2023-03-19T07:13:46;95101.25;;;9.98;57.88
6090;BME280;3073;42.660;23.316;2023-03-19T07:16:13;95083.78;;;10.66;56.49
6090;BME280;3073;42.660;23.316;2023-03-19T07:18:41;95083.97;;;10.64;55.67
6090;BME280;3073;42.660;23.316;2023-03-19T07:21:08;95092.41;;;11.11;53.89
6090;BME280;3073;42.660;23.316;2023-03-19T07:23:35;95087.97;;;11.18;53.15
6090;BME280;3073;42.660;23.316;2023-03-19T07:26:02;95085.75;;;11.73;51.44
6090;BME280;3073;42.660;23.316;2023-03-19T07:28:29;95084.59;;;11.81;51.48
6090;BME280;3073;42.660;23.316;2023-03-19T07:30:56;95076.63;;;11.77;50.26
6090;BME280;3073;42.660;23.316;2023-03-19T07:33:23;95088.75;;;11.59;50.60
6090;BME280;3073;42.660;23.316;2023-03-19T07:35:51;95075.56;;;11.90;50.32
6090;BME280;3073;42.660;23.316;2023-03-19T07:38:18;95074.44;;;12.14;50.51
6090;BME280;3073;42.660;23.316;2023-03-19T07:40:45;95073.28;;;11.65;50.63
6090;BME280;3073;42.660;23.316;2023-03-19T07:43:12;95072.50;;;12.71;49.10
6090;BME280;3073;42.660;23.316;2023-03-19T07:45:39;95078.59;;;11.87;47.92
6090;BME280;3073;42.660;23.316;2023-03-19T07:48:06;95082.22;;;12.36;48.25
6090;BME280;3073;42.660;23.316;2023-03-19T07:50:33;95078.25;;;12.78;47.75
6090;BME280;3073;42.660;23.316;2023-03-19T07:53:02;95089.25;;;12.79;47.17
6090;BME280;3073;42.660;23.316;2023-03-19T07:55:29;95083.25;;;13.07;47.18
6090;BME280;3073;42.660;23.316;2023-03-19T07:57:56;95088.25;;;13.57;46.68
6090;BME280;3073;42.660;23.316;2023-03-19T08:00:23;95082.09;;;14.06;46.35
6090;BME280;3073;42.660;23.316;2023-03-19T08:02:50;95083.28;;;14.25;45.27
6090;BME280;3073;42.660;23.316;2023-03-19T08:05:19;95085.75;;;13.40;46.88
6090;BME280;3073;42.660;23.316;2023-03-19T08:07:48;95078.63;;;14.22;45.30
6090;BME280;3073;42.660;23.316;2023-03-19T08:10:17;95074.00;;;14.83;44.74
6090;BME280;3073;42.660;23.316;2023-03-19T08:12:44;95078.41;;;15.39;43.90
6090;BME280;3073;42.660;23.316;2023-03-19T08:15:11;95080.44;;;15.37;43.75
6090;BME280;3073;42.660;23.316;2023-03-19T08:17:39;95080.81;;;15.51;42.79
6090;BME280;3073;42.660;23.316;2023-03-19T08:20:08;95079.53;;;15.59;43.35
6090;BME280;3073;42.660;23.316;2023-03-19T08:22:37;95076.72;;;15.65;41.75
6090;BME280;3073;42.660;23.316;2023-03-19T08:25:05;95080.31;;;15.69;42.30
6090;BME280;3073;42.660;23.316;2023-03-19T08:27:34;95076.44;;;14.04;43.10
6090;BME280;3073;42.660;23.316;2023-03-19T08:30:01;95080.03;;;14.08;44.26
6090;BME280;3073;42.660;23.316;2023-03-19T08:32:29;95079.50;;;13.79;43.95
6090;BME280;3073;42.660;23.316;2023-03-19T08:34:56;95077.31;;;13.45;45.07
6090;BME280;3073;42.660;23.316;2023-03-19T08:37:22;95077.38;;;13.71;43.86
6090;BME280;3073;42.660;23.316;2023-03-19T08:39:49;95083.69;;;13.85;43.81
6090;BME280;3073;42.660;23.316;2023-03-19T08:42:17;95071.00;;;14.59;43.50
6090;BME280;3073;42.660;23.316;2023-03-19T08:44:45;95064.66;;;15.14;42.00
6090;BME280;3073;42.660;23.316;2023-03-19T08:47:12;95073.16;;;15.14;41.95
6090;BME280;3073;42.660;23.316;2023-03-19T08:49:39;95062.69;;;16.23;40.28
6090;BME280;3073;42.660;23.316;2023-03-19T08:52:07;95056.75;;;16.83;39.63
6090;BME280;3073;42.660;23.316;2023-03-19T08:54:34;95053.56;;;15.65;40.57
6090;BME280;3073;42.660;23.316;2023-03-19T08:57:04;95054.66;;;15.94;40.50
6090;BME280;3073;42.660;23.316;2023-03-19T08:59:31;95054.34;;;15.61;40.46
6090;BME280;3073;42.660;23.316;2023-03-19T09:01:59;95051.59;;;16.33;40.56
6090;BME280;3073;42.660;23.316;2023-03-19T09:04:26;95050.72;;;17.82;38.95
6090;BME280;3073;42.660;23.316;2023-03-19T09:06:53;95041.81;;;18.04;37.41
6090;BME280;3073;42.660;23.316;2023-03-19T09:09:22;95047.41;;;18.49;37.18
6090;BME280;3073;42.660;23.316;2023-03-19T09:11:48;95042.78;;;18.13;36.74
6090;BME280;3073;42.660;23.316;2023-03-19T09:14:16;95039.72;;;17.62;37.78
6090;BME280;3073;42.660;23.316;2023-03-19T09:16:44;95039.06;;;17.41;38.35
6090;BME280;3073;42.660;23.316;2023-03-19T09:19:13;95031.91;;;18.16;37.23
6090;BME280;3073;42.660;23.316;2023-03-19T09:21:40;95035.84;;;18.42;36.60
6090;BME280;3073;42.660;23.316;2023-03-19T09:24:09;95039.50;;;17.53;37.62
6090;BME280;3073;42.660;23.316;2023-03-19T09:26:36;95035.63;;;17.56;37.53
6090;BME280;3073;42.660;23.316;2023-03-19T09:29:03;95041.00;;;18.08;36.76
6090;BME280;3073;42.660;23.316;2023-03-19T09:31:29;95035.66;;;18.67;36.42
6090;BME280;3073;42.660;23.316;2023-03-19T09:33:57;95027.41;;;18.65;35.22
6090;BME280;3073;42.660;23.316;2023-03-19T09:36:25;95021.78;;;18.87;35.16
6090;BME280;3073;42.660;23.316;2023-03-19T09:38:52;95030.75;;;16.60;36.80
6090;BME280;3073;42.660;23.316;2023-03-19T09:41:28;95024.53;;;16.76;37.79
6090;BME280;3073;42.660;23.316;2023-03-19T09:44:03;95028.13;;;16.55;37.89
6090;BME280;3073;42.660;23.316;2023-03-19T09:46:36;95031.19;;;17.02;37.71
6090;BME280;3073;42.660;23.316;2023-03-19T09:49:15;95026.03;;;17.71;36.75
6090;BME280;3073;42.660;23.316;2023-03-19T09:51:47;95017.16;;;19.08;35.33
6090;BME280;3073;42.660;23.316;2023-03-19T09:54:28;95004.34;;;19.40;34.81
6090;BME280;3073;42.660;23.316;2023-03-19T09:56:57;95018.34;;;20.32;32.97
6090;BME280;3073;42.660;23.316;2023-03-19T09:59:26;95010.44;;;20.56;32.74
6090;BME280;3073;42.660;23.316;2023-03-19T10:02:00;95016.66;;;20.87;31.86
6090;BME280;3073;42.660;23.316;2023-03-19T10:04:45;95008.47;;;20.80;31.95
6090;BME280;3073;42.660;23.316;2023-03-19T10:07:26;95001.41;;;21.27;32.18
6090;BME280;3073;42.660;23.316;2023-03-19T10:12:56;94995.88;;;18.63;34.96
6090;BME280;3073;42.660;23.316;2023-03-19T10:15:27;94998.16;;;17.09;36.39
6090;BME280;3073;42.660;23.316;2023-03-19T10:17:59;95001.00;;;17.08;36.43
6090;BME280;3073;42.660;23.316;2023-03-19T10:20:34;94982.03;;;16.48;37.00
6090;BME280;3073;42.660;23.316;2023-03-19T10:23:18;94981.06;;;16.04;37.46
6090;BME280;3073;42.660;23.316;2023-03-19T10:25:51;94974.94;;;17.14;36.91
6090;BME280;3073;42.660;23.316;2023-03-19T10:28:21;94978.03;;;17.70;36.38
6090;BME280;3073;42.660;23.316;2023-03-19T10:30:54;94972.00;;;17.36;36.93
6090;BME280;3073;42.660;23.316;2023-03-19T10:33:33;94964.03;;;18.91;35.06
6090;BME280;3073;42.660;23.316;2023-03-19T10:36:08;94960.22;;;19.31;33.97
6090;BME280;3073;42.660;23.316;2023-03-19T10:38:40;94957.94;;;19.67;34.81
6090;BME280;3073;42.660;23.316;2023-03-19T10:41:19;94958.25;;;19.79;34.26
6090;BME280;3073;42.660;23.316;2023-03-19T10:43:52;94952.06;;;20.99;32.42
6090;BME280;3073;42.660;23.316;2023-03-19T10:46:20;94946.97;;;22.16;31.19
6090;BME280;3073;42.660;23.316;2023-03-19T10:48:48;94943.41;;;22.34;30.84
6090;BME280;3073;42.660;23.316;2023-03-19T10:51:17;94929.47;;;23.08;29.74
6090;BME280;3073;42.660;23.316;2023-03-19T10:53:48;94940.47;;;21.60;30.99
6090;BME280;3073;42.660;23.316;2023-03-19T10:56:19;94925.50;;;20.21;32.07
6090;BME280;3073;42.660;23.316;2023-03-19T10:59:01;94920.03;;;19.15;32.95
6090;BME280;3073;42.660;23.316;2023-03-19T11:01:31;94925.28;;;20.17;32.71
6090;BME280;3073;42.660;23.316;2023-03-19T11:04:00;94911.16;;;20.69;32.30
6090;BME280;3073;42.660;23.316;2023-03-19T11:06:31;94905.56;;;21.52;31.88
6090;BME280;3073;42.660;23.316;2023-03-19T11:09:02;94898.75;;;22.01;30.67
6090;BME280;3073;42.660;23.316;2023-03-19T11:11:42;94902.22;;;21.74;30.51
6090;BME280;3073;42.660;23.316;2023-03-19T11:14:14;94906.19;;;21.36;31.16
6090;BME280;3073;42.660;23.316;2023-03-19T11:16:49;94891.41;;;22.03;31.16
6090;BME280;3073;42.660;23.316;2023-03-19T11:19:19;94885.06;;;23.22;30.41
6090;BME280;3073;42.660;23.316;2023-03-19T11:21:58;94886.94;;;23.82;29.30
6090;BME280;3073;42.660;23.316;2023-03-19T11:24:30;94876.97;;;23.24;28.91
6090;BME280;3073;42.660;23.316;2023-03-19T11:26:58;94878.72;;;21.57;30.94
6090;BME280;3073;42.660;23.316;2023-03-19T11:29:28;94873.81;;;20.70;31.21
6090;BME280;3073;42.660;23.316;2023-03-19T11:32:06;94864.47;;;20.42;32.49
6090;BME280;3073;42.660;23.316;2023-03-19T11:34:42;94866.81;;;22.09;31.53
6090;BME280;3073;42.660;23.316;2023-03-19T11:37:16;94861.63;;;22.88;29.81
6090;BME280;3073;42.660;23.316;2023-03-19T11:39:57;94853.84;;;23.39;29.60
6090;BME280;3073;42.660;23.316;2023-03-19T11:42:42;94848.28;;;23.75;28.77
6090;BME280;3073;42.660;23.316;2023-03-19T11:45:20;94847.47;;;24.85;28.16
6090;BME280;3073;42.660;23.316;2023-03-19T11:47:59;94847.72;;;25.33;27.93
6090;BME280;3073;42.660;23.316;2023-03-19T11:50:35;94837.44;;;23.04;29.05
6090;BME280;3073;42.660;23.316;2023-03-19T11:53:18;94840.59;;;23.96;28.44
6090;BME280;3073;42.660;23.316;2023-03-19T11:55:55;94837.19;;;24.80;28.04
6090;BME280;3073;42.660;23.316;2023-03-19T11:58:43;94829.41;;;25.21;27.82
6090;BME280;3073;42.660;23.316;2023-03-19T12:01:27;94831.78;;;25.68;27.29
6090;BME280;3073;42.660;23.316;2023-03-19T12:04:10;94829.81;;;23.51;28.71
6090;BME280;3073;42.660;23.316;2023-03-19T12:06:51;94820.75;;;22.88;28.95
6090;BME280;3073;42.660;23.316;2023-03-19T12:09:28;94822.28;;;23.24;29.19
6090;BME280;3073;42.660;23.316;2023-03-19T12:12:05;94813.56;;;24.18;28.33
6090;BME280;3073;42.660;23.316;2023-03-19T12:14:50;94811.81;;;24.59;27.73
6090;BME280;3073;42.660;23.316;2023-03-19T12:17:33;94810.16;;;24.76;27.25
6090;BME280;3073;42.660;23.316;2023-03-19T12:20:30;94805.16;;;24.41;27.31
6090;BME280;3073;42.660;23.316;2023-03-19T12:23:07;94805.91;;;24.42;27.94
6090;BME280;3073;42.660;23.316;2023-03-19T12:25:58;94804.94;;;24.84;27.73
6090;BME280;3073;42.660;23.316;2023-03-19T12:28:32;94803.88;;;25.39;27.29
6090;BME280;3073;42.660;23.316;2023-03-19T12:34:15;94794.69;;;25.21;27.23
6090;BME280;3073;42.660;23.316;2023-03-19T12:36:50;94788.78;;;25.89;27.00
6090;BME280;3073;42.660;23.316;2023-03-19T12:39:22;94794.16;;;26.78;25.91
6090;BME280;3073;42.660;23.316;2023-03-19T12:41:51;94790.34;;;26.15;26.36
6090;BME280;3073;42.660;23.316;2023-03-19T12:44:25;94782.25;;;25.71;26.28
6090;BME280;3073;42.660;23.316;2023-03-19T12:46:56;94779.03;;;26.23;26.52
6090;BME280;3073;42.660;23.316;2023-03-19T12:49:30;94781.66;;;26.35;26.18
6090;BME280;3073;42.660;23.316;2023-03-19T12:52:03;94777.81;;;26.69;26.39
6090;BME280;3073;42.660;23.316;2023-03-19T12:54:35;94770.41;;;27.10;25.93
6090;BME280;3073;42.660;23.316;2023-03-19T12:57:08;94770.94;;;27.44;25.77
6090;BME280;3073;42.660;23.316;2023-03-19T12:59:43;94768.66;;;27.15;25.87
6090;BME280;3073;42.660;23.316;2023-03-19T13:02:19;94771.81;;;27.36;25.79
6090;BME280;3073;42.660;23.316;2023-03-19T13:04:53;94763.59;;;27.49;25.64
6090;BME280;3073;42.660;23.316;2023-03-19T13:07:25;94766.41;;;27.56;24.97
6090;BME280;3073;42.660;23.316;2023-03-19T13:09:58;94765.47;;;25.84;27.07
6090;BME280;3073;42.660;23.316;2023-03-19T13:12:29;94758.94;;;25.90;26.30
6090;BME280;3073;42.660;23.316;2023-03-19T13:15:01;94751.50;;;25.02;26.74
6090;BME280;3073;42.660;23.316;2023-03-19T13:17:36;94753.44;;;24.14;27.07
6090;BME280;3073;42.660;23.316;2023-03-19T13:20:17;94742.84;;;24.90;27.37
6090;BME280;3073;42.660;23.316;2023-03-19T13:22:50;94743.72;;;24.73;27.02
6090;BME280;3073;42.660;23.316;2023-03-19T13:25:22;94746.16;;;24.78;27.21
6090;BME280;3073;42.660;23.316;2023-03-19T13:27:51;94734.63;;;25.33;27.32
6090;BME280;3073;42.660;23.316;2023-03-19T13:30:22;94742.31;;;24.96;27.08
6090;BME280;3073;42.660;23.316;2023-03-19T13:32:52;94733.66;;;25.37;26.89